Lavista, Nebraska
Current Conditions -  °F | °C
As of 8:55 PM on Tuesday 25 Nov 2014 (Local Time) from KMLE Reporting Station
Overcast Overcast  
Wind Chill: 35°   Ceiling: 4500
Heat Index: 40°   Visibility: 10mi
Dew Point: 26°   Wind: 8mph
Humidity: 57%   Direction: 150°SSE
Pressure: 29.9"   Gusts: NA
Location:  41.166°N, 96.0444°W
Report Text: KMLE 260255Z AUTO 15007KT 10SM SCT032 BKN045 OVC050 05/M03 A2990 RMK AO2 T00461033
Loading
Personal Weather Stations






























Interactive Weather Map New forecast layout! Learn more

10-Day Weather Forecast

Advertisements
Track Severe Weather on mobile